Decoded Metar for LQMO (MOSTAR in BOSNIA-HERCEGOVINA) (IATA:OMO) | Meteo·Mobile Aviation Weather
aviador You're here:

LQMO Decoded Metar

MOSTAR in BOSNIA-HERCEGOVINA
Report Time2018-11-18 20:30:00
UTC Time2018-11-18 20:53:55
Flight Rules vfr VFR
WindVRB at 03 kt
Visibility9999 m
Phenomena:N/A
Clouds:N/A
Expected CloudBase > 3,200 ft AGL from Temp-Dew spread
CeilingNone
Temp06°C (ISA -8)
Dew Point-2°C (57% RH)
AAT2.7°C
QNH1010 hPa
Density Alt-469 ft
Elevation354 ft
Report Wrong Elevation
Raw Report
METAR LQMO 182030Z VRB03KT CAVOK 06/M02 Q1010=

Extra information for LQMO:More info

Metar Taf Metar & Taf Last 4 Metars F.Rules Stats Wind Profile Meteogram Temp Stats Airport Information Weather charts Add Link Nearby VenuesMetar ALERT Operation Metar Decoded Social comments